EPKA weather

Kielce Maslow Airport
Kielce, Swietokrzyskie, Poland

Public forecast

Using degrees Celsius for public forecast. Weather courtesy of forecast.io.

Closest aviation weather report (METAR) to Kielce Maslow Airport

Closest report is Radom Airport, 34.7 nm (64.2 km) NNE. Retrieved 2020/01/27 11:30 UTC (20 minutes ago):

EPRA 271130Z 23004KT 8000 NSC 06/02 Q1014

Closest aviation forecast (TAF) to Kielce Maslow Airport

Closest forecast is Krak√≥w John Paul II International Airport, 61.0 nm (113.1 km) SW. Retrieved 2020/01/27 09:33 UTC (2 hours ago):

TAF TAF EPKK 270830Z 2709/2809 23002KT 3000 BR NSC BECMG 2709/2711 7000 BECMG 2715/2717 3000 BR BECMG 2717/2719 1200 BR TEMPO 2720/2803 0600 FZFG BECMG 2804/2807 05010KT 6000